This is the latest recevied weather packets stored in our database for station/object OK1PHM-12. If no packets are shown the sender has not sent any weather packets the latest 10 day(s).
| Time | Temp. | Humidity | Pressure | Rain* | Wind** | Luminosity | Snow |
|---|---|---|---|---|---|---|---|
| 1778141645 | 20° C | 61% | 1012.7 hPa | - | - | - | - |
| 1778140745 | 18.89° C | 63% | 1012.7 hPa | - | - | - | - |
| 1778139843 | 17.78° C | 67% | 1012.7 hPa | - | - | - | - |
| 1778138942 | 17.22° C | 71% | 1012.5 hPa | - | - | - | - |
| 1778138041 | 16.67° C | 72% | 1012.4 hPa | - | - | - | - |
| 1778137141 | 16.67° C | 72% | 1012.4 hPa | - | - | - | - |
| 1778136240 | 15.56° C | 74% | 1012.3 hPa | - | - | - | - |
| 1778135339 | 16.67° C | 72% | 1012.2 hPa | - | - | - | - |
| 1778134438 | 15.56° C | 77% | 1012.1 hPa | - | - | - | - |
| 1778133537 | 15.56° C | 76% | 1011.9 hPa | - | - | - | - |
| 1778132637 | 15° C | 79% | 1011.7 hPa | - | - | - | - |
| 1778131736 | 14.44° C | 81% | 1011.6 hPa | - | - | - | - |
| 1778130835 | 14.44° C | 82% | 1011.4 hPa | - | - | - | - |
| 1778129934 | 14.44° C | 83% | 1011.3 hPa | - | - | - | - |
| 1778129033 | 13.89° C | 83% | 1011.1 hPa | - | - | - | - |
| 1778128132 | 13.89° C | 84% | 1010.9 hPa | - | - | - | - |
| 1778127232 | 13.89° C | 86% | 1010.7 hPa | - | - | - | - |
| 1778126331 | 13.89° C | 87% | 1010.6 hPa | - | - | - | - |
| 1778125430 | 13.89° C | 87% | 1010.5 hPa | - | - | - | - |
| 1778124529 | 13.89° C | 87% | 1010.4 hPa | - | - | - | - |
| 1778123628 | 13.89° C | 87% | 1010.2 hPa | - | - | - | - |
| 1778122727 | 13.33° C | 87% | 1010.2 hPa | - | - | - | - |
| 1778121827 | 13.33° C | 89% | 1010.1 hPa | - | - | - | - |
| 1778120926 | 13.33° C | 88% | 1010.1 hPa | - | - | - | - |
| 1778120025 | 13.33° C | 90% | 1010.1 hPa | - | - | - | - |
* Rain since midnight (hover to see other rain measurements)
** Current wind speed in m/s (hover to see current wind gust speed)